SLM632 TNCA-SMJP
Flight info
| Callsign | SLM632 |
|---|---|
| Flight time | 2h 24m |
| Altitude | 35000 |
| Route | ABA DCT PJG UL219 MEGIR UP671 POS DCT ZY |
| Aircraft | A320/M-SDE3FGHIRWY/LB1 |
Departure
| Time | 2026-04-20 14:17 |
|---|---|
| Airport | Queen Beatrix International Airport (TNCA) |
Arrival
| Time | 2026-04-20 16:42 |
|---|---|
| Airport | Johan Adolf Pengel International Airport (SMJP) |
| Time | Latitude | Longitude | Altitude | Speed | Heading |
|---|---|---|---|---|---|
| 2026-04-20 13:44 | 12.50284 | -70.00823 | 47 ft | 0 kts | 14° |
| 2026-04-20 14:07 | 12.50266 | -70.00827 | 46 ft | 3 kts | 1° |
| 2026-04-20 14:07 | 12.50243 | -70.00824 | 45 ft | 3 kts | 336° |
| 2026-04-20 14:07 | 12.50234 | -70.00819 | 42 ft | 0 kts | 330° |
| 2026-04-20 14:10 | 12.50242 | -70.00833 | 45 ft | 4 kts | 283° |
| 2026-04-20 14:11 | 12.50218 | -70.00879 | 47 ft | 8 kts | 271° |
| 2026-04-20 14:11 | 12.50232 | -70.00927 | 47 ft | 6 kts | 284° |
| 2026-04-20 14:11 | 12.50244 | -70.00976 | 44 ft | 9 kts | 284° |
| 2026-04-20 14:11 | 12.50258 | -70.01036 | 46 ft | 8 kts | 283° |
| 2026-04-20 14:12 | 12.50255 | -70.01092 | 43 ft | 12 kts | 245° |
| 2026-04-20 14:12 | 12.50233 | -70.01163 | 47 ft | 10 kts | 271° |
| 2026-04-20 14:12 | 12.50248 | -70.01223 | 46 ft | 8 kts | 285° |
| 2026-04-20 14:12 | 12.50264 | -70.01290 | 46 ft | 14 kts | 284° |
| 2026-04-20 14:13 | 12.50286 | -70.01382 | 46 ft | 13 kts | 284° |
| 2026-04-20 14:13 | 12.50306 | -70.01462 | 46 ft | 11 kts | 283° |
| 2026-04-20 14:13 | 12.50320 | -70.01533 | 46 ft | 9 kts | 281° |
| 2026-04-20 14:13 | 12.50335 | -70.01598 | 46 ft | 13 kts | 283° |
| 2026-04-20 14:14 | 12.50360 | -70.01703 | 44 ft | 15 kts | 284° |
| 2026-04-20 14:14 | 12.50384 | -70.01800 | 45 ft | 13 kts | 284° |
| 2026-04-20 14:14 | 12.50406 | -70.01887 | 45 ft | 12 kts | 284° |
| 2026-04-20 14:14 | 12.50426 | -70.01964 | 45 ft | 10 kts | 285° |
| 2026-04-20 14:15 | 12.50442 | -70.02045 | 45 ft | 19 kts | 282° |
| 2026-04-20 14:15 | 12.50487 | -70.02239 | 43 ft | 29 kts | 284° |
| 2026-04-20 14:15 | 12.50541 | -70.02432 | 44 ft | 27 kts | 284° |
| 2026-04-20 14:15 | 12.50579 | -70.02605 | 44 ft | 21 kts | 281° |
| 2026-04-20 14:16 | 12.50539 | -70.02724 | 42 ft | 18 kts | 204° |
| 2026-04-20 14:16 | 12.50442 | -70.02799 | 35 ft | 14 kts | 174° |
| 2026-04-20 14:16 | 12.50427 | -70.02743 | 35 ft | 9 kts | 111° |
| 2026-04-20 14:16 | 12.50398 | -70.02628 | 35 ft | 39 kts | 104° |
| 2026-04-20 14:17 | 12.50278 | -70.02128 | 39 ft | 103 kts | 104° |
| 2026-04-20 14:17 | 12.50069 | -70.01247 | 100 ft | 145 kts | 104° |
| 2026-04-20 14:17 | 12.49860 | -70.00300 | 732 ft | 136 kts | 99° |
| 2026-04-20 14:17 | 12.49669 | -69.99314 | 1193 ft | 144 kts | 99° |
| 2026-04-20 14:18 | 12.49455 | -69.98322 | 1754 ft | 143 kts | 94° |
| 2026-04-20 14:18 | 12.49601 | -69.97290 | 2156 ft | 158 kts | 75° |
| 2026-04-20 14:18 | 12.49967 | -69.96134 | 2301 ft | 187 kts | 73° |
| 2026-04-20 14:18 | 12.50378 | -69.94807 | 2575 ft | 204 kts | 81° |
| 2026-04-20 14:19 | 12.50262 | -69.93299 | 2824 ft | 227 kts | 108° |
| 2026-04-20 14:19 | 12.49729 | -69.91692 | 3396 ft | 246 kts | 109° |
| 2026-04-20 14:19 | 12.49166 | -69.90010 | 4218 ft | 253 kts | 107° |
| 2026-04-20 14:19 | 12.48592 | -69.88286 | 4948 ft | 259 kts | 108° |
| 2026-04-20 14:20 | 12.48011 | -69.86532 | 5707 ft | 261 kts | 107° |
| 2026-04-20 14:20 | 12.47424 | -69.84759 | 6463 ft | 265 kts | 108° |
| 2026-04-20 14:20 | 12.46828 | -69.82956 | 7152 ft | 269 kts | 108° |
| 2026-04-20 14:20 | 12.46225 | -69.81132 | 7863 ft | 272 kts | 107° |
| 2026-04-20 14:21 | 12.45616 | -69.79287 | 8576 ft | 276 kts | 107° |
| 2026-04-20 14:21 | 12.44999 | -69.77415 | 9261 ft | 280 kts | 107° |
| 2026-04-20 14:21 | 12.44372 | -69.75518 | 9934 ft | 284 kts | 107° |
| 2026-04-20 14:21 | 12.43725 | -69.73565 | 10316 ft | 299 kts | 107° |
| 2026-04-20 14:22 | 12.43035 | -69.71474 | 10453 ft | 321 kts | 107° |
| 2026-04-20 14:22 | 12.42302 | -69.69251 | 10787 ft | 335 kts | 108° |
| 2026-04-20 14:22 | 12.41550 | -69.66974 | 11322 ft | 340 kts | 107° |
| 2026-04-20 14:22 | 12.40788 | -69.64668 | 11918 ft | 345 kts | 108° |
| 2026-04-20 14:23 | 12.40016 | -69.62330 | 12501 ft | 349 kts | 107° |
| 2026-04-20 14:23 | 12.39233 | -69.59968 | 13086 ft | 353 kts | 107° |
| 2026-04-20 14:23 | 12.38438 | -69.57579 | 13649 ft | 357 kts | 107° |
| 2026-04-20 14:23 | 12.37635 | -69.55161 | 14169 ft | 361 kts | 107° |
| 2026-04-20 14:24 | 12.36823 | -69.52720 | 14686 ft | 364 kts | 107° |
| 2026-04-20 14:24 | 12.36005 | -69.50262 | 15187 ft | 367 kts | 107° |
| 2026-04-20 14:24 | 12.35182 | -69.47783 | 15696 ft | 370 kts | 107° |
| 2026-04-20 14:24 | 12.34356 | -69.45283 | 16188 ft | 373 kts | 107° |
| 2026-04-20 14:25 | 12.33525 | -69.42761 | 16668 ft | 376 kts | 107° |
| 2026-04-20 14:25 | 12.32686 | -69.40218 | 17158 ft | 379 kts | 107° |
| 2026-04-20 14:25 | 12.31839 | -69.37660 | 17647 ft | 382 kts | 107° |
| 2026-04-20 14:25 | 12.30995 | -69.35116 | 18117 ft | 385 kts | 107° |
| 2026-04-20 14:26 | 12.30133 | -69.32515 | 18549 ft | 388 kts | 107° |
| 2026-04-20 14:26 | 12.29266 | -69.29894 | 18945 ft | 391 kts | 107° |
| 2026-04-20 14:26 | 12.28389 | -69.27252 | 19338 ft | 394 kts | 107° |
| 2026-04-20 14:26 | 12.27504 | -69.24590 | 19726 ft | 397 kts | 107° |
| 2026-04-20 14:27 | 12.26609 | -69.21906 | 20115 ft | 400 kts | 107° |
| 2026-04-20 14:27 | 12.25707 | -69.19204 | 20510 ft | 403 kts | 107° |
| 2026-04-20 14:27 | 12.24800 | -69.16481 | 20905 ft | 406 kts | 107° |
| 2026-04-20 14:27 | 12.23887 | -69.13737 | 21279 ft | 409 kts | 107° |
| 2026-04-20 14:28 | 12.22967 | -69.10971 | 21670 ft | 412 kts | 107° |
| 2026-04-20 14:28 | 12.22038 | -69.08184 | 22047 ft | 415 kts | 107° |
| 2026-04-20 14:28 | 12.21104 | -69.05381 | 22424 ft | 418 kts | 107° |
| 2026-04-20 14:28 | 12.20171 | -69.02554 | 22803 ft | 421 kts | 105° |
| 2026-04-20 14:29 | 12.19553 | -68.99633 | 23168 ft | 421 kts | 95° |
| 2026-04-20 14:29 | 12.19260 | -68.96649 | 23535 ft | 423 kts | 94° |
| 2026-04-20 14:29 | 12.18966 | -68.93648 | 23836 ft | 426 kts | 94° |
| 2026-04-20 14:29 | 12.18665 | -68.90632 | 24121 ft | 428 kts | 94° |
| 2026-04-20 14:30 | 12.18359 | -68.87603 | 24406 ft | 430 kts | 94° |
| 2026-04-20 14:30 | 12.18154 | -68.85586 | 24594 ft | 431 kts | 94° |
| 2026-04-20 14:30 | 12.17845 | -68.82528 | 24871 ft | 433 kts | 94° |
| 2026-04-20 14:30 | 12.17542 | -68.79462 | 25152 ft | 435 kts | 94° |
| 2026-04-20 14:31 | 12.17238 | -68.76379 | 25428 ft | 437 kts | 94° |
| 2026-04-20 14:31 | 12.16930 | -68.73283 | 25691 ft | 439 kts | 94° |
| 2026-04-20 14:31 | 12.16619 | -68.70174 | 25958 ft | 441 kts | 94° |
| 2026-04-20 14:31 | 12.16306 | -68.67054 | 26218 ft | 443 kts | 94° |
| 2026-04-20 14:32 | 12.15990 | -68.63916 | 26471 ft | 445 kts | 94° |
| 2026-04-20 14:32 | 12.15669 | -68.60768 | 26718 ft | 446 kts | 94° |
| 2026-04-20 14:32 | 12.15346 | -68.57605 | 26960 ft | 448 kts | 94° |
| 2026-04-20 14:32 | 12.15025 | -68.54425 | 27211 ft | 450 kts | 94° |
| 2026-04-20 14:33 | 12.14704 | -68.51233 | 27454 ft | 452 kts | 94° |
| 2026-04-20 14:33 | 12.14385 | -68.48072 | 27691 ft | 454 kts | 94° |
| 2026-04-20 14:33 | 12.14059 | -68.44856 | 27929 ft | 456 kts | 94° |
| 2026-04-20 14:33 | 12.13732 | -68.41628 | 28155 ft | 458 kts | 94° |
| 2026-04-20 14:34 | 12.13404 | -68.38385 | 28384 ft | 460 kts | 94° |
| 2026-04-20 14:34 | 12.13075 | -68.35122 | 28603 ft | 462 kts | 94° |
| 2026-04-20 14:34 | 12.12745 | -68.31854 | 28822 ft | 463 kts | 94° |
| 2026-04-20 14:34 | 12.12412 | -68.28568 | 29034 ft | 465 kts | 94° |
| 2026-04-20 14:35 | 12.12078 | -68.25273 | 29242 ft | 467 kts | 94° |
| 2026-04-20 14:35 | 12.11742 | -68.21967 | 29428 ft | 469 kts | 94° |
| 2026-04-20 14:35 | 12.11403 | -68.18642 | 29641 ft | 471 kts | 95° |
| 2026-04-20 14:35 | 12.11065 | -68.15303 | 29828 ft | 473 kts | 95° |
| 2026-04-20 14:36 | 12.10728 | -68.11956 | 30024 ft | 475 kts | 95° |
| 2026-04-20 14:36 | 12.10389 | -68.08593 | 30186 ft | 476 kts | 95° |
| 2026-04-20 14:36 | 12.10049 | -68.05223 | 30340 ft | 478 kts | 95° |
| 2026-04-20 14:36 | 12.09707 | -68.01833 | 30489 ft | 480 kts | 95° |
| 2026-04-20 14:37 | 12.09366 | -67.98434 | 30633 ft | 481 kts | 95° |
| 2026-04-20 14:37 | 12.09031 | -67.95076 | 30845 ft | 481 kts | 95° |
| 2026-04-20 14:37 | 12.08684 | -67.91630 | 31073 ft | 481 kts | 95° |
| 2026-04-20 14:37 | 12.08338 | -67.88230 | 31285 ft | 481 kts | 95° |
| 2026-04-20 14:38 | 12.07983 | -67.84831 | 31503 ft | 481 kts | 97° |
| 2026-04-20 14:38 | 12.07334 | -67.81529 | 31699 ft | 481 kts | 106° |
| 2026-04-20 14:38 | 12.06332 | -67.78272 | 31922 ft | 481 kts | 108° |
| 2026-04-20 14:38 | 12.05307 | -67.75016 | 32149 ft | 481 kts | 108° |
| 2026-04-20 14:39 | 12.04282 | -67.71766 | 32377 ft | 480 kts | 108° |
| 2026-04-20 14:39 | 12.03259 | -67.68520 | 32609 ft | 480 kts | 108° |
| 2026-04-20 14:39 | 12.02240 | -67.65276 | 32815 ft | 480 kts | 108° |
| 2026-04-20 14:39 | 12.01218 | -67.62025 | 33034 ft | 480 kts | 109° |
| 2026-04-20 14:40 | 12.00199 | -67.58776 | 33242 ft | 481 kts | 109° |
| 2026-04-20 14:40 | 11.99179 | -67.55525 | 33464 ft | 481 kts | 109° |
| 2026-04-20 14:40 | 11.98161 | -67.52274 | 33683 ft | 481 kts | 109° |
| 2026-04-20 14:40 | 11.97141 | -67.49019 | 33890 ft | 481 kts | 109° |
| 2026-04-20 14:41 | 11.96118 | -67.45769 | 34099 ft | 481 kts | 109° |
| 2026-04-20 14:41 | 11.95090 | -67.42514 | 34285 ft | 481 kts | 109° |
| 2026-04-20 14:41 | 11.94062 | -67.39262 | 34482 ft | 481 kts | 109° |
| 2026-04-20 14:41 | 11.93030 | -67.36004 | 34664 ft | 481 kts | 109° |
| 2026-04-20 14:42 | 11.92002 | -67.32752 | 34842 ft | 481 kts | 109° |
| 2026-04-20 14:42 | 11.90989 | -67.29543 | 34981 ft | 482 kts | 109° |
| 2026-04-20 14:42 | 11.88946 | -67.23066 | 35015 ft | 478 kts | 110° |
| 2026-04-20 14:43 | 11.86905 | -67.16603 | 35014 ft | 478 kts | 110° |
| 2026-04-20 14:43 | 11.84864 | -67.10140 | 35021 ft | 478 kts | 110° |
| 2026-04-20 14:44 | 11.82819 | -67.03679 | 35018 ft | 479 kts | 110° |
| 2026-04-20 14:44 | 11.80768 | -66.97209 | 35013 ft | 479 kts | 110° |
| 2026-04-20 14:45 | 11.78714 | -66.90741 | 35016 ft | 479 kts | 110° |
| 2026-04-20 14:45 | 11.76686 | -66.84264 | 35024 ft | 479 kts | 110° |
| 2026-04-20 14:46 | 11.74722 | -66.77753 | 35022 ft | 480 kts | 109° |
| 2026-04-20 14:46 | 11.72767 | -66.71247 | 35025 ft | 480 kts | 110° |
| 2026-04-20 14:47 | 11.70787 | -66.64748 | 35032 ft | 480 kts | 110° |
| 2026-04-20 14:48 | 11.67815 | -66.55039 | 35031 ft | 480 kts | 110° |
| 2026-04-20 14:48 | 11.65816 | -66.48499 | 35030 ft | 480 kts | 110° |
| 2026-04-20 14:49 | 11.63846 | -66.42047 | 35033 ft | 480 kts | 110° |
| 2026-04-20 14:49 | 11.61862 | -66.35556 | 35033 ft | 479 kts | 111° |
| 2026-04-20 14:50 | 11.59866 | -66.29062 | 35030 ft | 479 kts | 111° |
| 2026-04-20 14:50 | 11.57876 | -66.22580 | 35033 ft | 479 kts | 111° |
| 2026-04-20 14:51 | 11.55897 | -66.16100 | 35030 ft | 479 kts | 111° |
| 2026-04-20 14:51 | 11.53909 | -66.09619 | 35034 ft | 478 kts | 111° |
| 2026-04-20 14:52 | 11.51920 | -66.03154 | 35037 ft | 478 kts | 111° |
| 2026-04-20 14:52 | 11.49935 | -65.96690 | 35030 ft | 477 kts | 111° |
| 2026-04-20 14:53 | 11.47953 | -65.90236 | 35031 ft | 477 kts | 111° |
| 2026-04-20 14:53 | 11.45965 | -65.83788 | 35029 ft | 476 kts | 111° |
| 2026-04-20 14:54 | 11.43975 | -65.77343 | 35031 ft | 476 kts | 111° |
| 2026-04-20 14:54 | 11.41992 | -65.70912 | 35032 ft | 475 kts | 111° |
| 2026-04-20 14:55 | 11.40014 | -65.64488 | 35035 ft | 475 kts | 111° |
| 2026-04-20 14:55 | 11.38030 | -65.58070 | 35028 ft | 474 kts | 111° |
| 2026-04-20 14:56 | 11.36059 | -65.51710 | 35032 ft | 474 kts | 111° |
| 2026-04-20 14:56 | 11.34077 | -65.45316 | 35026 ft | 473 kts | 111° |
| 2026-04-20 14:57 | 11.32096 | -65.38927 | 35025 ft | 472 kts | 111° |
| 2026-04-20 14:57 | 11.30126 | -65.32541 | 35022 ft | 472 kts | 111° |
| 2026-04-20 14:58 | 11.28152 | -65.26165 | 35017 ft | 472 kts | 111° |
| 2026-04-20 14:58 | 11.26169 | -65.19795 | 35016 ft | 471 kts | 111° |
| 2026-04-20 14:59 | 11.24186 | -65.13430 | 35014 ft | 471 kts | 111° |
| 2026-04-20 14:59 | 11.22200 | -65.07068 | 35009 ft | 471 kts | 111° |
| 2026-04-20 15:00 | 11.20236 | -65.00751 | 35013 ft | 471 kts | 111° |
| 2026-04-20 15:00 | 11.18262 | -64.94400 | 35011 ft | 470 kts | 111° |
| 2026-04-20 15:01 | 11.16285 | -64.88051 | 35005 ft | 470 kts | 111° |
| 2026-04-20 15:01 | 11.14301 | -64.81711 | 35010 ft | 470 kts | 111° |
| 2026-04-20 15:02 | 11.12310 | -64.75378 | 35015 ft | 469 kts | 111° |
| 2026-04-20 15:02 | 11.10329 | -64.69047 | 35006 ft | 469 kts | 111° |
| 2026-04-20 15:03 | 11.08360 | -64.62722 | 34998 ft | 469 kts | 111° |
| 2026-04-20 15:03 | 11.06566 | -64.56333 | 34992 ft | 470 kts | 108° |
| 2026-04-20 15:04 | 11.05007 | -64.49861 | 35004 ft | 471 kts | 107° |
| 2026-04-20 15:04 | 11.03466 | -64.43394 | 34997 ft | 470 kts | 107° |
| 2026-04-20 15:05 | 11.01861 | -64.36936 | 35000 ft | 470 kts | 108° |
| 2026-04-20 15:05 | 11.00222 | -64.30492 | 35006 ft | 471 kts | 108° |
| 2026-04-20 15:06 | 10.98585 | -64.24048 | 35002 ft | 470 kts | 108° |
| 2026-04-20 15:06 | 10.96952 | -64.17605 | 35000 ft | 470 kts | 108° |
| 2026-04-20 15:07 | 10.95330 | -64.11158 | 35000 ft | 470 kts | 108° |
| 2026-04-20 15:07 | 10.93699 | -64.04713 | 35003 ft | 470 kts | 108° |
| 2026-04-20 15:08 | 10.92071 | -63.98272 | 35006 ft | 470 kts | 108° |
| 2026-04-20 15:08 | 10.90535 | -63.91796 | 35002 ft | 472 kts | 105° |
| 2026-04-20 15:09 | 10.89330 | -63.85270 | 35003 ft | 472 kts | 103° |
| 2026-04-20 15:09 | 10.88212 | -63.78678 | 35010 ft | 472 kts | 103° |
| 2026-04-20 15:10 | 10.87024 | -63.72114 | 35008 ft | 472 kts | 104° |
| 2026-04-20 15:10 | 10.85770 | -63.65556 | 35007 ft | 471 kts | 104° |
| 2026-04-20 15:11 | 10.84518 | -63.59011 | 35013 ft | 471 kts | 104° |
| 2026-04-20 15:11 | 10.83285 | -63.52465 | 35018 ft | 471 kts | 104° |
| 2026-04-20 15:12 | 10.82053 | -63.45926 | 35009 ft | 471 kts | 104° |
| 2026-04-20 15:12 | 10.80820 | -63.39383 | 35009 ft | 471 kts | 104° |
| 2026-04-20 15:13 | 10.79587 | -63.32851 | 35015 ft | 470 kts | 104° |
| 2026-04-20 15:13 | 10.78355 | -63.26358 | 35010 ft | 470 kts | 104° |
| 2026-04-20 15:14 | 10.77116 | -63.19826 | 35011 ft | 470 kts | 104° |
| 2026-04-20 15:14 | 10.75881 | -63.13296 | 35014 ft | 470 kts | 104° |
| 2026-04-20 15:15 | 10.74644 | -63.06770 | 35017 ft | 470 kts | 104° |
| 2026-04-20 15:15 | 10.73400 | -63.00243 | 35018 ft | 470 kts | 104° |
| 2026-04-20 15:16 | 10.72161 | -62.93725 | 35013 ft | 470 kts | 104° |
| 2026-04-20 15:16 | 10.70915 | -62.87205 | 35011 ft | 470 kts | 104° |
| 2026-04-20 15:17 | 10.69664 | -62.80688 | 35016 ft | 469 kts | 104° |
| 2026-04-20 15:17 | 10.68419 | -62.74172 | 35013 ft | 469 kts | 104° |
| 2026-04-20 15:18 | 10.67385 | -62.68759 | 35014 ft | 469 kts | 104° |
| 2026-04-20 15:18 | 10.66139 | -62.62243 | 35015 ft | 469 kts | 104° |
| 2026-04-20 15:19 | 10.64890 | -62.55736 | 35017 ft | 469 kts | 104° |
| 2026-04-20 15:19 | 10.63643 | -62.49233 | 35019 ft | 469 kts | 104° |
| 2026-04-20 15:20 | 10.62395 | -62.42727 | 35025 ft | 468 kts | 105° |
| 2026-04-20 15:20 | 10.61145 | -62.36234 | 35027 ft | 468 kts | 105° |
| 2026-04-20 15:21 | 10.59896 | -62.29739 | 35018 ft | 468 kts | 105° |
| 2026-04-20 15:21 | 10.58644 | -62.23255 | 35021 ft | 467 kts | 105° |
| 2026-04-20 15:22 | 10.57395 | -62.16815 | 35022 ft | 467 kts | 105° |
| 2026-04-20 15:22 | 10.56145 | -62.10334 | 35025 ft | 467 kts | 105° |
| 2026-04-20 15:23 | 10.54893 | -62.03854 | 35021 ft | 467 kts | 105° |
| 2026-04-20 15:23 | 10.53637 | -61.97379 | 35015 ft | 467 kts | 105° |
| 2026-04-20 15:24 | 10.52378 | -61.90903 | 35012 ft | 467 kts | 105° |
| 2026-04-20 15:24 | 10.51366 | -61.84374 | 35015 ft | 469 kts | 99° |
| 2026-04-20 15:25 | 10.50681 | -61.77779 | 35009 ft | 469 kts | 99° |
| 2026-04-20 15:25 | 10.49990 | -61.71180 | 35007 ft | 469 kts | 99° |
| 2026-04-20 15:26 | 10.49303 | -61.64593 | 35008 ft | 469 kts | 100° |
| 2026-04-20 15:26 | 10.48608 | -61.58005 | 35010 ft | 469 kts | 100° |
| 2026-04-20 15:27 | 10.47921 | -61.51420 | 35012 ft | 468 kts | 100° |
| 2026-04-20 15:27 | 10.47223 | -61.44843 | 35015 ft | 467 kts | 102° |
| 2026-04-20 15:28 | 10.45390 | -61.38658 | 35010 ft | 456 kts | 121° |
| 2026-04-20 15:28 | 10.41863 | -61.33373 | 35014 ft | 447 kts | 134° |
| 2026-04-20 15:29 | 10.37912 | -61.28541 | 35006 ft | 447 kts | 134° |
| 2026-04-20 15:29 | 10.33947 | -61.23663 | 35009 ft | 447 kts | 134° |
| 2026-04-20 15:30 | 10.29985 | -61.18792 | 35011 ft | 447 kts | 134° |
| 2026-04-20 15:30 | 10.26016 | -61.13928 | 35022 ft | 447 kts | 134° |
| 2026-04-20 15:31 | 10.22050 | -61.09059 | 35019 ft | 447 kts | 133° |
| 2026-04-20 15:31 | 10.18085 | -61.04204 | 35025 ft | 447 kts | 134° |
| 2026-04-20 15:32 | 10.14115 | -60.99345 | 35025 ft | 447 kts | 133° |
| 2026-04-20 15:32 | 10.10154 | -60.94487 | 35026 ft | 446 kts | 133° |
| 2026-04-20 15:33 | 10.06193 | -60.89637 | 35032 ft | 446 kts | 133° |
| 2026-04-20 15:33 | 10.02234 | -60.84797 | 35031 ft | 445 kts | 133° |
| 2026-04-20 15:34 | 9.98277 | -60.79963 | 35029 ft | 445 kts | 133° |
| 2026-04-20 15:34 | 9.94332 | -60.75132 | 35028 ft | 444 kts | 133° |
| 2026-04-20 15:35 | 9.90421 | -60.70338 | 35032 ft | 443 kts | 133° |
| 2026-04-20 15:35 | 9.86488 | -60.65530 | 35033 ft | 442 kts | 133° |
| 2026-04-20 15:36 | 9.82557 | -60.60741 | 35035 ft | 441 kts | 133° |
| 2026-04-20 15:36 | 9.78629 | -60.55963 | 35028 ft | 440 kts | 133° |
| 2026-04-20 15:37 | 9.74718 | -60.51187 | 35031 ft | 439 kts | 133° |
| 2026-04-20 15:37 | 9.70813 | -60.46418 | 35035 ft | 438 kts | 133° |
| 2026-04-20 15:38 | 9.66920 | -60.41673 | 35033 ft | 437 kts | 134° |
| 2026-04-20 15:38 | 9.63036 | -60.36942 | 35031 ft | 436 kts | 134° |
| 2026-04-20 15:39 | 9.59164 | -60.32225 | 35035 ft | 435 kts | 134° |
| 2026-04-20 15:39 | 9.55304 | -60.27518 | 35030 ft | 434 kts | 134° |
| 2026-04-20 15:40 | 9.51446 | -60.22826 | 35033 ft | 433 kts | 134° |
| 2026-04-20 15:40 | 9.47602 | -60.18145 | 35030 ft | 432 kts | 134° |
| 2026-04-20 15:41 | 9.43756 | -60.13472 | 35028 ft | 431 kts | 134° |
| 2026-04-20 15:41 | 9.39920 | -60.08812 | 35032 ft | 431 kts | 134° |
| 2026-04-20 15:42 | 9.36083 | -60.04160 | 35025 ft | 430 kts | 134° |
| 2026-04-20 15:42 | 9.32279 | -59.99543 | 35023 ft | 429 kts | 134° |
| 2026-04-20 15:43 | 9.28459 | -59.94901 | 35022 ft | 429 kts | 134° |
| 2026-04-20 15:43 | 9.24641 | -59.90261 | 35018 ft | 429 kts | 134° |
| 2026-04-20 15:44 | 9.20823 | -59.85623 | 35018 ft | 428 kts | 134° |
| 2026-04-20 15:44 | 9.17006 | -59.81000 | 35018 ft | 428 kts | 134° |
| 2026-04-20 15:45 | 9.13182 | -59.76374 | 35019 ft | 428 kts | 134° |
| 2026-04-20 15:45 | 9.09362 | -59.71759 | 35017 ft | 428 kts | 134° |
| 2026-04-20 15:46 | 9.05560 | -59.67136 | 35021 ft | 427 kts | 134° |
| 2026-04-20 15:46 | 9.01759 | -59.62519 | 35012 ft | 427 kts | 134° |
| 2026-04-20 15:47 | 8.97954 | -59.57910 | 35017 ft | 427 kts | 134° |
| 2026-04-20 15:47 | 8.94147 | -59.53304 | 35018 ft | 426 kts | 134° |
| 2026-04-20 15:48 | 8.90342 | -59.48704 | 35017 ft | 426 kts | 134° |
| 2026-04-20 15:48 | 8.86542 | -59.44109 | 35015 ft | 426 kts | 134° |
| 2026-04-20 15:49 | 8.82742 | -59.39522 | 35013 ft | 425 kts | 134° |
| 2026-04-20 15:49 | 8.78947 | -59.34931 | 35013 ft | 425 kts | 134° |
| 2026-04-20 15:50 | 8.75153 | -59.30339 | 35016 ft | 425 kts | 134° |
| 2026-04-20 15:50 | 8.71358 | -59.25761 | 35014 ft | 425 kts | 134° |
| 2026-04-20 15:51 | 8.67566 | -59.21183 | 35011 ft | 425 kts | 134° |
| 2026-04-20 15:51 | 8.63803 | -59.16628 | 35007 ft | 425 kts | 133° |
| 2026-04-20 15:52 | 8.60010 | -59.12052 | 35002 ft | 425 kts | 134° |
| 2026-04-20 15:52 | 8.56204 | -59.07486 | 35004 ft | 425 kts | 134° |
| 2026-04-20 15:53 | 8.50510 | -59.00626 | 35004 ft | 425 kts | 134° |
| 2026-04-20 15:53 | 8.46717 | -58.96055 | 35002 ft | 425 kts | 134° |
| 2026-04-20 15:54 | 8.42924 | -58.91476 | 35002 ft | 425 kts | 133° |
| 2026-04-20 15:54 | 8.39129 | -58.86906 | 35003 ft | 424 kts | 134° |
| 2026-04-20 15:55 | 8.35335 | -58.82338 | 35004 ft | 424 kts | 134° |
| 2026-04-20 15:55 | 8.31543 | -58.77776 | 35008 ft | 424 kts | 133° |
| 2026-04-20 15:56 | 8.27776 | -58.73240 | 35014 ft | 424 kts | 133° |
| 2026-04-20 15:56 | 8.23987 | -58.68680 | 35007 ft | 423 kts | 134° |
| 2026-04-20 15:57 | 8.20199 | -58.64133 | 35009 ft | 423 kts | 134° |
| 2026-04-20 15:57 | 8.16413 | -58.59588 | 35004 ft | 423 kts | 133° |
| 2026-04-20 15:58 | 8.12636 | -58.55046 | 34994 ft | 423 kts | 133° |
| 2026-04-20 15:58 | 8.08851 | -58.50503 | 35009 ft | 423 kts | 133° |
| 2026-04-20 15:59 | 8.05061 | -58.45954 | 34999 ft | 423 kts | 133° |
| 2026-04-20 15:59 | 8.01275 | -58.41407 | 35004 ft | 423 kts | 133° |
| 2026-04-20 16:00 | 7.97491 | -58.36871 | 35002 ft | 422 kts | 133° |
| 2026-04-20 16:00 | 7.93716 | -58.32338 | 35003 ft | 422 kts | 133° |
| 2026-04-20 16:01 | 7.89944 | -58.27807 | 34994 ft | 421 kts | 133° |
| 2026-04-20 16:01 | 7.86171 | -58.23285 | 34994 ft | 421 kts | 133° |
| 2026-04-20 16:02 | 7.83029 | -58.19528 | 34990 ft | 421 kts | 133° |
| 2026-04-20 16:02 | 7.79259 | -58.15008 | 34990 ft | 421 kts | 133° |
| 2026-04-20 16:03 | 7.75491 | -58.10488 | 34986 ft | 421 kts | 133° |
| 2026-04-20 16:03 | 7.71101 | -58.05243 | 34996 ft | 421 kts | 133° |
| 2026-04-20 16:04 | 7.67940 | -58.01465 | 34995 ft | 421 kts | 133° |
| 2026-04-20 16:04 | 7.64172 | -57.96950 | 34995 ft | 421 kts | 133° |
| 2026-04-20 16:05 | 7.60405 | -57.92431 | 34996 ft | 421 kts | 133° |
| 2026-04-20 16:05 | 7.56658 | -57.87947 | 34992 ft | 421 kts | 133° |
| 2026-04-20 16:06 | 7.52885 | -57.83439 | 34996 ft | 421 kts | 133° |
| 2026-04-20 16:06 | 7.49109 | -57.78936 | 35000 ft | 420 kts | 133° |
| 2026-04-20 16:07 | 7.45335 | -57.74432 | 35001 ft | 420 kts | 133° |
| 2026-04-20 16:07 | 7.41557 | -57.69927 | 35001 ft | 420 kts | 132° |
| 2026-04-20 16:08 | 7.37790 | -57.65426 | 34999 ft | 420 kts | 132° |
| 2026-04-20 16:08 | 7.34025 | -57.60922 | 35003 ft | 420 kts | 132° |
| 2026-04-20 16:09 | 7.30254 | -57.56423 | 34995 ft | 420 kts | 132° |
| 2026-04-20 16:09 | 7.26484 | -57.51931 | 34996 ft | 420 kts | 132° |
| 2026-04-20 16:10 | 7.22718 | -57.47438 | 34991 ft | 420 kts | 132° |
| 2026-04-20 16:10 | 7.18955 | -57.42942 | 34991 ft | 419 kts | 132° |
| 2026-04-20 16:11 | 7.15190 | -57.38457 | 34993 ft | 419 kts | 132° |
| 2026-04-20 16:11 | 7.11432 | -57.33979 | 34986 ft | 419 kts | 132° |
| 2026-04-20 16:12 | 7.07673 | -57.29501 | 34979 ft | 418 kts | 132° |
| 2026-04-20 16:12 | 7.03913 | -57.25023 | 34984 ft | 419 kts | 132° |
| 2026-04-20 16:13 | 7.00180 | -57.20577 | 34989 ft | 419 kts | 132° |
| 2026-04-20 16:13 | 6.96422 | -57.16106 | 34987 ft | 418 kts | 131° |
| 2026-04-20 16:14 | 6.92666 | -57.11635 | 34989 ft | 418 kts | 131° |
| 2026-04-20 16:14 | 6.88910 | -57.07163 | 34994 ft | 418 kts | 131° |
| 2026-04-20 16:15 | 6.85153 | -57.02691 | 34990 ft | 418 kts | 131° |
| 2026-04-20 16:15 | 6.81394 | -56.98223 | 34997 ft | 418 kts | 131° |
| 2026-04-20 16:16 | 6.77633 | -56.93755 | 34997 ft | 418 kts | 131° |
| 2026-04-20 16:16 | 6.73879 | -56.89289 | 34998 ft | 418 kts | 131° |
| 2026-04-20 16:17 | 6.70118 | -56.84821 | 34992 ft | 418 kts | 131° |
| 2026-04-20 16:17 | 6.66357 | -56.80357 | 34987 ft | 418 kts | 131° |
| 2026-04-20 16:18 | 6.64471 | -56.78116 | 34768 ft | 419 kts | 131° |
| 2026-04-20 16:18 | 6.62589 | -56.75878 | 34536 ft | 419 kts | 131° |
| 2026-04-20 16:18 | 6.60730 | -56.73671 | 34316 ft | 419 kts | 131° |
| 2026-04-20 16:18 | 6.58849 | -56.71437 | 34087 ft | 418 kts | 131° |
| 2026-04-20 16:19 | 6.56969 | -56.69202 | 33841 ft | 417 kts | 132° |
| 2026-04-20 16:19 | 6.55096 | -56.66974 | 33582 ft | 416 kts | 132° |
| 2026-04-20 16:19 | 6.53238 | -56.64768 | 33128 ft | 411 kts | 132° |
| 2026-04-20 16:19 | 6.51399 | -56.62585 | 32617 ft | 408 kts | 132° |
| 2026-04-20 16:20 | 6.49572 | -56.60416 | 32117 ft | 405 kts | 132° |
| 2026-04-20 16:20 | 6.47758 | -56.58263 | 31624 ft | 402 kts | 133° |
| 2026-04-20 16:20 | 6.45955 | -56.56124 | 31132 ft | 400 kts | 133° |
| 2026-04-20 16:20 | 6.44158 | -56.53999 | 30647 ft | 398 kts | 133° |
| 2026-04-20 16:21 | 6.42370 | -56.51879 | 30159 ft | 396 kts | 133° |
| 2026-04-20 16:21 | 6.40591 | -56.49772 | 29628 ft | 394 kts | 133° |
| 2026-04-20 16:21 | 6.38822 | -56.47678 | 29166 ft | 391 kts | 133° |
| 2026-04-20 16:21 | 6.37067 | -56.45601 | 28697 ft | 388 kts | 133° |
| 2026-04-20 16:22 | 6.35330 | -56.43540 | 28246 ft | 385 kts | 133° |
| 2026-04-20 16:22 | 6.33602 | -56.41491 | 27799 ft | 383 kts | 133° |
| 2026-04-20 16:22 | 6.31883 | -56.39456 | 27370 ft | 380 kts | 133° |
| 2026-04-20 16:22 | 6.30202 | -56.37465 | 26946 ft | 378 kts | 133° |
| 2026-04-20 16:23 | 6.28506 | -56.35456 | 26524 ft | 375 kts | 133° |
| 2026-04-20 16:23 | 6.26825 | -56.33461 | 26109 ft | 373 kts | 133° |
| 2026-04-20 16:23 | 6.25157 | -56.31479 | 25685 ft | 371 kts | 133° |
| 2026-04-20 16:23 | 6.23493 | -56.29508 | 25262 ft | 369 kts | 133° |
| 2026-04-20 16:24 | 6.21834 | -56.27549 | 24825 ft | 368 kts | 133° |
| 2026-04-20 16:24 | 6.20178 | -56.25595 | 24386 ft | 367 kts | 133° |
| 2026-04-20 16:24 | 6.18525 | -56.23642 | 23943 ft | 367 kts | 133° |
| 2026-04-20 16:24 | 6.16873 | -56.21686 | 23475 ft | 367 kts | 133° |
| 2026-04-20 16:25 | 6.15222 | -56.19727 | 22971 ft | 367 kts | 133° |
| 2026-04-20 16:25 | 6.13573 | -56.17770 | 22513 ft | 365 kts | 133° |
| 2026-04-20 16:25 | 6.11933 | -56.15827 | 22053 ft | 364 kts | 132° |
| 2026-04-20 16:25 | 6.10316 | -56.13913 | 21605 ft | 363 kts | 132° |
| 2026-04-20 16:26 | 6.08682 | -56.11980 | 21152 ft | 363 kts | 132° |
| 2026-04-20 16:26 | 6.07049 | -56.10050 | 20701 ft | 363 kts | 132° |
| 2026-04-20 16:26 | 6.05417 | -56.08120 | 20253 ft | 362 kts | 132° |
| 2026-04-20 16:26 | 6.03783 | -56.06185 | 19801 ft | 363 kts | 132° |
| 2026-04-20 16:27 | 6.02152 | -56.04252 | 19344 ft | 363 kts | 131° |
| 2026-04-20 16:27 | 6.00515 | -56.02313 | 18898 ft | 364 kts | 131° |
| 2026-04-20 16:27 | 5.98874 | -56.00376 | 18450 ft | 364 kts | 131° |
| 2026-04-20 16:27 | 5.97231 | -55.98434 | 17965 ft | 365 kts | 131° |
| 2026-04-20 16:28 | 5.95589 | -55.96494 | 17522 ft | 364 kts | 131° |
| 2026-04-20 16:28 | 5.93952 | -55.94559 | 17072 ft | 362 kts | 131° |
| 2026-04-20 16:28 | 5.92324 | -55.92636 | 16633 ft | 361 kts | 131° |
| 2026-04-20 16:28 | 5.90699 | -55.90716 | 16197 ft | 360 kts | 131° |
| 2026-04-20 16:29 | 5.89080 | -55.88801 | 15776 ft | 359 kts | 131° |
| 2026-04-20 16:29 | 5.87467 | -55.86892 | 15327 ft | 358 kts | 131° |
| 2026-04-20 16:29 | 5.85861 | -55.84988 | 14909 ft | 356 kts | 130° |
| 2026-04-20 16:29 | 5.84271 | -55.83105 | 14561 ft | 352 kts | 130° |
| 2026-04-20 16:30 | 5.82688 | -55.81237 | 14235 ft | 348 kts | 130° |
| 2026-04-20 16:30 | 5.81126 | -55.79397 | 13865 ft | 345 kts | 130° |
| 2026-04-20 16:30 | 5.79575 | -55.77574 | 13457 ft | 342 kts | 130° |
| 2026-04-20 16:30 | 5.78035 | -55.75759 | 13016 ft | 340 kts | 130° |
| 2026-04-20 16:31 | 5.76510 | -55.73960 | 12592 ft | 337 kts | 130° |
| 2026-04-20 16:31 | 5.75017 | -55.72196 | 12162 ft | 335 kts | 130° |
| 2026-04-20 16:31 | 5.73518 | -55.70422 | 11733 ft | 332 kts | 130° |
| 2026-04-20 16:31 | 5.72025 | -55.68657 | 11295 ft | 330 kts | 130° |
| 2026-04-20 16:32 | 5.70540 | -55.66906 | 10872 ft | 328 kts | 130° |
| 2026-04-20 16:32 | 5.69067 | -55.65170 | 10463 ft | 326 kts | 130° |
| 2026-04-20 16:32 | 5.67610 | -55.63453 | 10228 ft | 317 kts | 130° |
| 2026-04-20 16:32 | 5.66207 | -55.61801 | 10109 ft | 305 kts | 130° |
| 2026-04-20 16:33 | 5.64838 | -55.60222 | 9954 ft | 295 kts | 135° |
| 2026-04-20 16:33 | 5.63258 | -55.58975 | 9807 ft | 281 kts | 144° |
| 2026-04-20 16:33 | 5.61697 | -55.57920 | 9645 ft | 261 kts | 149° |
| 2026-04-20 16:33 | 5.61166 | -55.57615 | 9561 ft | 259 kts | 150° |
| 2026-04-20 16:34 | 5.59937 | -55.56970 | 9355 ft | 255 kts | 152° |
| 2026-04-20 16:34 | 5.58362 | -55.56165 | 9061 ft | 252 kts | 152° |
| 2026-04-20 16:34 | 5.56800 | -55.55372 | 8740 ft | 251 kts | 152° |
| 2026-04-20 16:34 | 5.55244 | -55.54582 | 8387 ft | 250 kts | 152° |
| 2026-04-20 16:35 | 5.53699 | -55.53800 | 8052 ft | 249 kts | 152° |
| 2026-04-20 16:35 | 5.52156 | -55.53019 | 7716 ft | 247 kts | 152° |
| 2026-04-20 16:35 | 5.50613 | -55.52240 | 7281 ft | 251 kts | 152° |
| 2026-04-20 16:35 | 5.49039 | -55.51444 | 6805 ft | 256 kts | 152° |
| 2026-04-20 16:36 | 5.47455 | -55.50597 | 6344 ft | 259 kts | 143° |
| 2026-04-20 16:36 | 5.46227 | -55.49285 | 5851 ft | 260 kts | 118° |
| 2026-04-20 16:36 | 5.45689 | -55.47560 | 5364 ft | 262 kts | 94° |
| 2026-04-20 16:36 | 5.45589 | -55.45747 | 4888 ft | 265 kts | 92° |
| 2026-04-20 16:37 | 5.45504 | -55.43903 | 4520 ft | 262 kts | 92° |
| 2026-04-20 16:37 | 5.45420 | -55.42090 | 4193 ft | 258 kts | 92° |
| 2026-04-20 16:37 | 5.45337 | -55.40302 | 3866 ft | 254 kts | 92° |
| 2026-04-20 16:37 | 5.45253 | -55.38549 | 3544 ft | 250 kts | 92° |
| 2026-04-20 16:38 | 5.45170 | -55.36841 | 3314 ft | 239 kts | 92° |
| 2026-04-20 16:38 | 5.45144 | -55.35198 | 2955 ft | 231 kts | 90° |
| 2026-04-20 16:38 | 5.45155 | -55.33623 | 2622 ft | 221 kts | 89° |
| 2026-04-20 16:38 | 5.45175 | -55.32116 | 2364 ft | 210 kts | 89° |
| 2026-04-20 16:39 | 5.45194 | -55.30707 | 2081 ft | 194 kts | 89° |
| 2026-04-20 16:39 | 5.45208 | -55.29406 | 1821 ft | 180 kts | 89° |
| 2026-04-20 16:39 | 5.45219 | -55.28182 | 1567 ft | 170 kts | 89° |
| 2026-04-20 16:39 | 5.45228 | -55.27035 | 1352 ft | 158 kts | 89° |
| 2026-04-20 16:40 | 5.45236 | -55.25963 | 1167 ft | 149 kts | 90° |
| 2026-04-20 16:40 | 5.45242 | -55.24944 | 971 ft | 144 kts | 90° |
| 2026-04-20 16:40 | 5.45250 | -55.23951 | 777 ft | 141 kts | 89° |
| 2026-04-20 16:40 | 5.45252 | -55.22957 | 710 ft | 142 kts | 88° |
| 2026-04-20 16:41 | 5.45255 | -55.21965 | 527 ft | 142 kts | 90° |
| 2026-04-20 16:41 | 5.45252 | -55.20971 | 266 ft | 144 kts | 85° |
| 2026-04-20 16:41 | 5.45272 | -55.19990 | 79 ft | 136 kts | 86° |
| 2026-04-20 16:41 | 5.45294 | -55.19151 | 62 ft | 100 kts | 90° |
| 2026-04-20 16:42 | 5.45294 | -55.18618 | 56 ft | 60 kts | 90° |
| 2026-04-20 16:42 | 5.45295 | -55.18247 | 60 ft | 47 kts | 90° |
| 2026-04-20 16:42 | 5.45298 | -55.17949 | 65 ft | 39 kts | 90° |
| 2026-04-20 16:42 | 5.45298 | -55.17691 | 65 ft | 36 kts | 90° |
| 2026-04-20 16:43 | 5.45305 | -55.17486 | 65 ft | 26 kts | 69° |
| 2026-04-20 16:43 | 5.45433 | -55.17364 | 58 ft | 23 kts | 45° |
| 2026-04-20 16:43 | 5.45449 | -55.17236 | 61 ft | 17 kts | 124° |
| 2026-04-20 16:43 | 5.45354 | -55.17213 | 61 ft | 12 kts | 180° |
| 2026-04-20 16:44 | 5.45298 | -55.17254 | 59 ft | 14 kts | 246° |
| 2026-04-20 16:44 | 5.45294 | -55.17399 | 63 ft | 25 kts | 267° |
| 2026-04-20 16:44 | 5.45293 | -55.17566 | 56 ft | 23 kts | 269° |
| 2026-04-20 16:44 | 5.45292 | -55.17724 | 61 ft | 26 kts | 271° |
| 2026-04-20 16:45 | 5.45301 | -55.17969 | 65 ft | 43 kts | 271° |
| 2026-04-20 16:45 | 5.45305 | -55.18323 | 59 ft | 57 kts | 271° |
| 2026-04-20 16:45 | 5.45300 | -55.18745 | 56 ft | 61 kts | 271° |
| 2026-04-20 16:45 | 5.45294 | -55.19157 | 62 ft | 57 kts | 269° |
| 2026-04-20 16:46 | 5.45290 | -55.19543 | 66 ft | 54 kts | 268° |
| 2026-04-20 16:46 | 5.45292 | -55.19907 | 63 ft | 49 kts | 266° |
| 2026-04-20 16:46 | 5.45304 | -55.20072 | 56 ft | 11 kts | 330° |
| 2026-04-20 16:46 | 5.45361 | -55.20071 | 57 ft | 15 kts | 2° |
| 2026-04-20 16:47 | 5.45447 | -55.20007 | 58 ft | 15 kts | 70° |
| 2026-04-20 16:47 | 5.45490 | -55.19933 | 58 ft | 11 kts | 57° |
| 2026-04-20 16:47 | 5.45526 | -55.19872 | 58 ft | 7 kts | 59° |
| 2026-04-20 16:47 | 5.45528 | -55.19870 | 58 ft | 0 kts | 59° |